sensor_id;sensor_type;location;lat;lon;timestamp;P1;durP1;ratioP1;P2;durP2;ratioP2
38911;SDS011;28444;48.056;14.408;2023-10-08T00:01:19;6.32;;;3.42;;
38911;SDS011;28444;48.056;14.408;2023-10-08T00:03:48;5.53;;;2.85;;
38911;SDS011;28444;48.056;14.408;2023-10-08T00:06:34;9.48;;;3.75;;
38911;SDS011;28444;48.056;14.408;2023-10-08T00:09:35;8.95;;;3.42;;
38911;SDS011;28444;48.056;14.408;2023-10-08T00:12:04;9.90;;;3.33;;
38911;SDS011;28444;48.056;14.408;2023-10-08T00:14:33;6.45;;;3.55;;
38911;SDS011;28444;48.056;14.408;2023-10-08T00:17:20;7.97;;;3.45;;
38911;SDS011;28444;48.056;14.408;2023-10-08T00:19:58;9.35;;;3.10;;
38911;SDS011;28444;48.056;14.408;2023-10-08T00:22:48;6.25;;;3.30;;
38911;SDS011;28444;48.056;14.408;2023-10-08T00:25:15;9.30;;;4.03;;
38911;SDS011;28444;48.056;14.408;2023-10-08T00:27:42;7.60;;;3.08;;
38911;SDS011;28444;48.056;14.408;2023-10-08T00:30:09;6.28;;;3.63;;
38911;SDS011;28444;48.056;14.408;2023-10-08T00:32:44;9.93;;;3.63;;
38911;SDS011;28444;48.056;14.408;2023-10-08T00:35:11;11.65;;;3.63;;
38911;SDS011;28444;48.056;14.408;2023-10-08T00:37:41;7.40;;;3.72;;
38911;SDS011;28444;48.056;14.408;2023-10-08T00:40:08;10.40;;;3.63;;
38911;SDS011;28444;48.056;14.408;2023-10-08T00:42:47;9.93;;;4.38;;
38911;SDS011;28444;48.056;14.408;2023-10-08T00:45:17;6.22;;;3.30;;
38911;SDS011;28444;48.056;14.408;2023-10-08T00:47:45;6.75;;;3.42;;
38911;SDS011;28444;48.056;14.408;2023-10-08T00:50:13;6.65;;;3.63;;
38911;SDS011;28444;48.056;14.408;2023-10-08T00:52:47;6.80;;;3.00;;
38911;SDS011;28444;48.056;14.408;2023-10-08T00:55:36;5.30;;;3.10;;
38911;SDS011;28444;48.056;14.408;2023-10-08T00:58:02;7.97;;;3.40;;
38911;SDS011;28444;48.056;14.408;2023-10-08T01:00:36;8.05;;;3.33;;
38911;SDS011;28444;48.056;14.408;2023-10-08T01:03:07;7.20;;;3.30;;
38911;SDS011;28444;48.056;14.408;2023-10-08T01:05:42;9.88;;;3.60;;
38911;SDS011;28444;48.056;14.408;2023-10-08T01:08:14;11.90;;;3.85;;
38911;SDS011;28444;48.056;14.408;2023-10-08T01:10:48;8.20;;;3.38;;
38911;SDS011;28444;48.056;14.408;2023-10-08T01:13:24;7.43;;;3.28;;
38911;SDS011;28444;48.056;14.408;2023-10-08T01:15:53;9.52;;;3.75;;
38911;SDS011;28444;48.056;14.408;2023-10-08T01:18:21;9.18;;;3.65;;
38911;SDS011;28444;48.056;14.408;2023-10-08T01:20:57;9.00;;;3.42;;
38911;SDS011;28444;48.056;14.408;2023-10-08T01:23:31;11.73;;;3.45;;
38911;SDS011;28444;48.056;14.408;2023-10-08T01:25:58;10.50;;;4.25;;
38911;SDS011;28444;48.056;14.408;2023-10-08T01:28:37;10.05;;;4.18;;
38911;SDS011;28444;48.056;14.408;2023-10-08T01:31:04;6.03;;;3.38;;
38911;SDS011;28444;48.056;14.408;2023-10-08T01:33:31;7.95;;;3.58;;
38911;SDS011;28444;48.056;14.408;2023-10-08T01:35:58;7.85;;;3.47;;
38911;SDS011;28444;48.056;14.408;2023-10-08T01:38:29;11.57;;;4.22;;
38911;SDS011;28444;48.056;14.408;2023-10-08T01:40:59;11.63;;;3.50;;
38911;SDS011;28444;48.056;14.408;2023-10-08T01:43:36;7.43;;;3.70;;
38911;SDS011;28444;48.056;14.408;2023-10-08T01:46:05;5.55;;;2.83;;
38911;SDS011;28444;48.056;14.408;2023-10-08T01:48:38;7.70;;;3.42;;
38911;SDS011;28444;48.056;14.408;2023-10-08T01:51:05;8.48;;;3.47;;
38911;SDS011;28444;48.056;14.408;2023-10-08T01:53:38;8.65;;;3.50;;
38911;SDS011;28444;48.056;14.408;2023-10-08T01:56:05;9.57;;;3.22;;
38911;SDS011;28444;48.056;14.408;2023-10-08T01:58:32;7.57;;;3.58;;
38911;SDS011;28444;48.056;14.408;2023-10-08T02:01:01;9.40;;;3.25;;
38911;SDS011;28444;48.056;14.408;2023-10-08T02:03:31;8.32;;;3.03;;
38911;SDS011;28444;48.056;14.408;2023-10-08T02:05:58;8.75;;;3.42;;
38911;SDS011;28444;48.056;14.408;2023-10-08T02:08:26;12.75;;;3.97;;
38911;SDS011;28444;48.056;14.408;2023-10-08T02:10:53;8.93;;;4.18;;
38911;SDS011;28444;48.056;14.408;2023-10-08T02:13:19;11.43;;;3.55;;
38911;SDS011;28444;48.056;14.408;2023-10-08T02:15:48;8.05;;;3.47;;
38911;SDS011;28444;48.056;14.408;2023-10-08T02:18:21;11.20;;;3.72;;
38911;SDS011;28444;48.056;14.408;2023-10-08T02:20:51;7.97;;;4.13;;
38911;SDS011;28444;48.056;14.408;2023-10-08T02:23:19;7.45;;;3.50;;
38911;SDS011;28444;48.056;14.408;2023-10-08T02:25:46;10.32;;;3.65;;
38911;SDS011;28444;48.056;14.408;2023-10-08T02:28:14;10.23;;;4.35;;
38911;SDS011;28444;48.056;14.408;2023-10-08T02:30:46;16.73;;;4.75;;
38911;SDS011;28444;48.056;14.408;2023-10-08T02:33:13;8.63;;;3.30;;
38911;SDS011;28444;48.056;14.408;2023-10-08T02:35:44;15.02;;;3.95;;
38911;SDS011;28444;48.056;14.408;2023-10-08T02:38:12;10.27;;;3.13;;
38911;SDS011;28444;48.056;14.408;2023-10-08T02:40:43;9.73;;;4.07;;
38911;SDS011;28444;48.056;14.408;2023-10-08T02:43:15;7.78;;;3.30;;
38911;SDS011;28444;48.056;14.408;2023-10-08T02:45:44;17.73;;;4.13;;
38911;SDS011;28444;48.056;14.408;2023-10-08T02:48:16;6.88;;;3.22;;
38911;SDS011;28444;48.056;14.408;2023-10-08T02:50:44;24.67;;;3.70;;
38911;SDS011;28444;48.056;14.408;2023-10-08T02:53:14;14.48;;;4.30;;
38911;SDS011;28444;48.056;14.408;2023-10-08T02:55:47;6.60;;;3.08;;
38911;SDS011;28444;48.056;14.408;2023-10-08T02:58:14;7.05;;;2.88;;
38911;SDS011;28444;48.056;14.408;2023-10-08T03:00:42;12.00;;;3.85;;
38911;SDS011;28444;48.056;14.408;2023-10-08T03:03:09;8.00;;;3.47;;
38911;SDS011;28444;48.056;14.408;2023-10-08T03:05:45;8.43;;;4.13;;
38911;SDS011;28444;48.056;14.408;2023-10-08T03:08:13;14.73;;;4.10;;
38911;SDS011;28444;48.056;14.408;2023-10-08T03:10:46;12.68;;;3.55;;
38911;SDS011;28444;48.056;14.408;2023-10-08T03:13:16;9.52;;;4.25;;
38911;SDS011;28444;48.056;14.408;2023-10-08T03:15:43;16.88;;;4.28;;
38911;SDS011;28444;48.056;14.408;2023-10-08T03:18:24;12.55;;;3.75;;
38911;SDS011;28444;48.056;14.408;2023-10-08T03:20:51;12.13;;;3.58;;
38911;SDS011;28444;48.056;14.408;2023-10-08T03:23:18;6.72;;;3.25;;
38911;SDS011;28444;48.056;14.408;2023-10-08T03:26:02;11.65;;;3.78;;
38911;SDS011;28444;48.056;14.408;2023-10-08T03:28:55;9.35;;;3.58;;
38911;SDS011;28444;48.056;14.408;2023-10-08T03:31:24;7.53;;;3.58;;
38911;SDS011;28444;48.056;14.408;2023-10-08T03:34:10;8.32;;;3.25;;
38911;SDS011;28444;48.056;14.408;2023-10-08T03:36:41;9.85;;;4.35;;
38911;SDS011;28444;48.056;14.408;2023-10-08T03:39:12;6.85;;;3.45;;
38911;SDS011;28444;48.056;14.408;2023-10-08T03:41:42;11.13;;;4.13;;
38911;SDS011;28444;48.056;14.408;2023-10-08T03:44:18;13.32;;;3.63;;
38911;SDS011;28444;48.056;14.408;2023-10-08T03:46:47;11.75;;;4.22;;
38911;SDS011;28444;48.056;14.408;2023-10-08T03:49:14;9.07;;;3.75;;
38911;SDS011;28444;48.056;14.408;2023-10-08T03:52:01;6.32;;;3.45;;
38911;SDS011;28444;48.056;14.408;2023-10-08T03:54:28;10.63;;;3.83;;
38911;SDS011;28444;48.056;14.408;2023-10-08T03:57:02;9.80;;;3.70;;
38911;SDS011;28444;48.056;14.408;2023-10-08T03:59:39;10.93;;;3.08;;
38911;SDS011;28444;48.056;14.408;2023-10-08T04:02:07;12.98;;;4.20;;
38911;SDS011;28444;48.056;14.408;2023-10-08T04:04:54;10.77;;;3.25;;
38911;SDS011;28444;48.056;14.408;2023-10-08T04:07:24;10.70;;;4.15;;
38911;SDS011;28444;48.056;14.408;2023-10-08T04:10:27;15.57;;;4.00;;
38911;SDS011;28444;48.056;14.408;2023-10-08T04:15:36;7.03;;;3.40;;
38911;SDS011;28444;48.056;14.408;2023-10-08T04:18:10;11.27;;;3.67;;
38911;SDS011;28444;48.056;14.408;2023-10-08T04:20:39;11.70;;;4.10;;
38911;SDS011;28444;48.056;14.408;2023-10-08T04:23:07;9.50;;;3.83;;
38911;SDS011;28444;48.056;14.408;2023-10-08T04:25:40;13.50;;;4.10;;
38911;SDS011;28444;48.056;14.408;2023-10-08T04:28:10;13.07;;;4.10;;
38911;SDS011;28444;48.056;14.408;2023-10-08T04:30:43;8.15;;;3.90;;
38911;SDS011;28444;48.056;14.408;2023-10-08T04:33:13;11.35;;;3.90;;
38911;SDS011;28444;48.056;14.408;2023-10-08T04:35:41;9.82;;;3.35;;
38911;SDS011;28444;48.056;14.408;2023-10-08T04:38:25;8.80;;;3.33;;
38911;SDS011;28444;48.056;14.408;2023-10-08T04:40:53;15.15;;;4.30;;
38911;SDS011;28444;48.056;14.408;2023-10-08T04:43:20;16.35;;;4.50;;
38911;SDS011;28444;48.056;14.408;2023-10-08T04:45:52;12.63;;;3.38;;
38911;SDS011;28444;48.056;14.408;2023-10-08T04:48:18;9.65;;;3.72;;
38911;SDS011;28444;48.056;14.408;2023-10-08T04:50:47;12.00;;;3.75;;
38911;SDS011;28444;48.056;14.408;2023-10-08T04:53:25;17.02;;;3.88;;
38911;SDS011;28444;48.056;14.408;2023-10-08T04:56:04;17.88;;;4.15;;
38911;SDS011;28444;48.056;14.408;2023-10-08T04:58:33;15.98;;;4.55;;
38911;SDS011;28444;48.056;14.408;2023-10-08T05:01:04;8.65;;;3.80;;
38911;SDS011;28444;48.056;14.408;2023-10-08T05:03:50;12.52;;;3.75;;
38911;SDS011;28444;48.056;14.408;2023-10-08T05:06:34;14.25;;;4.68;;
38911;SDS011;28444;48.056;14.408;2023-10-08T05:09:02;17.55;;;5.93;;
38911;SDS011;28444;48.056;14.408;2023-10-08T05:11:46;7.18;;;3.42;;
38911;SDS011;28444;48.056;14.408;2023-10-08T05:14:17;10.93;;;3.65;;
38911;SDS011;28444;48.056;14.408;2023-10-08T05:17:15;16.95;;;4.72;;
38911;SDS011;28444;48.056;14.408;2023-10-08T05:19:44;14.73;;;3.85;;
38911;SDS011;28444;48.056;14.408;2023-10-08T05:22:29;9.35;;;4.53;;
38911;SDS011;28444;48.056;14.408;2023-10-08T05:25:10;10.50;;;3.78;;
38911;SDS011;28444;48.056;14.408;2023-10-08T05:27:43;19.80;;;4.07;;
38911;SDS011;28444;48.056;14.408;2023-10-08T05:30:16;11.35;;;3.88;;
38911;SDS011;28444;48.056;14.408;2023-10-08T05:33:00;13.40;;;4.18;;
38911;SDS011;28444;48.056;14.408;2023-10-08T05:35:30;9.10;;;3.67;;
38911;SDS011;28444;48.056;14.408;2023-10-08T05:38:10;16.80;;;4.25;;
38911;SDS011;28444;48.056;14.408;2023-10-08T05:41:04;12.63;;;3.47;;
38911;SDS011;28444;48.056;14.408;2023-10-08T05:43:38;12.00;;;3.60;;
38911;SDS011;28444;48.056;14.408;2023-10-08T05:46:12;25.48;;;4.57;;
38911;SDS011;28444;48.056;14.408;2023-10-08T05:48:56;14.02;;;3.92;;
38911;SDS011;28444;48.056;14.408;2023-10-08T05:51:34;15.57;;;4.00;;
38911;SDS011;28444;48.056;14.408;2023-10-08T05:57:12;15.13;;;4.22;;
38911;SDS011;28444;48.056;14.408;2023-10-08T05:59:39;12.65;;;4.32;;
38911;SDS011;28444;48.056;14.408;2023-10-08T06:02:26;9.50;;;3.72;;
38911;SDS011;28444;48.056;14.408;2023-10-08T06:07:45;9.25;;;3.95;;
38911;SDS011;28444;48.056;14.408;2023-10-08T06:10:26;10.90;;;4.05;;
38911;SDS011;28444;48.056;14.408;2023-10-08T06:12:59;20.38;;;3.65;;
38911;SDS011;28444;48.056;14.408;2023-10-08T06:15:36;12.60;;;3.78;;
38911;SDS011;28444;48.056;14.408;2023-10-08T06:18:23;18.08;;;3.42;;
38911;SDS011;28444;48.056;14.408;2023-10-08T06:20:54;18.43;;;3.93;;
38911;SDS011;28444;48.056;14.408;2023-10-08T06:23:25;18.00;;;4.18;;
38911;SDS011;28444;48.056;14.408;2023-10-08T06:26:01;9.93;;;3.75;;
38911;SDS011;28444;48.056;14.408;2023-10-08T06:28:44;11.07;;;3.88;;
38911;SDS011;28444;48.056;14.408;2023-10-08T06:31:11;12.63;;;3.63;;
38911;SDS011;28444;48.056;14.408;2023-10-08T06:33:39;16.98;;;4.13;;
38911;SDS011;28444;48.056;14.408;2023-10-08T06:36:08;16.40;;;4.05;;
38911;SDS011;28444;48.056;14.408;2023-10-08T06:38:44;16.63;;;4.65;;
38911;SDS011;28444;48.056;14.408;2023-10-08T06:41:16;8.88;;;3.58;;
38911;SDS011;28444;48.056;14.408;2023-10-08T06:44:06;5.93;;;3.15;;
38911;SDS011;28444;48.056;14.408;2023-10-08T06:46:32;6.90;;;3.28;;
38911;SDS011;28444;48.056;14.408;2023-10-08T06:49:02;14.75;;;4.88;;
38911;SDS011;28444;48.056;14.408;2023-10-08T06:51:35;5.60;;;2.70;;
38911;SDS011;28444;48.056;14.408;2023-10-08T06:54:02;17.48;;;4.40;;
38911;SDS011;28444;48.056;14.408;2023-10-08T06:56:30;19.88;;;3.78;;
38911;SDS011;28444;48.056;14.408;2023-10-08T06:59:00;11.00;;;3.45;;
38911;SDS011;28444;48.056;14.408;2023-10-08T07:01:29;8.57;;;4.05;;
38911;SDS011;28444;48.056;14.408;2023-10-08T07:04:05;11.88;;;3.47;;
38911;SDS011;28444;48.056;14.408;2023-10-08T07:06:33;16.27;;;3.25;;
38911;SDS011;28444;48.056;14.408;2023-10-08T07:09:04;8.50;;;3.70;;
38911;SDS011;28444;48.056;14.408;2023-10-08T07:11:32;12.10;;;3.50;;
38911;SDS011;28444;48.056;14.408;2023-10-08T07:14:05;6.63;;;3.10;;
38911;SDS011;28444;48.056;14.408;2023-10-08T07:16:32;11.90;;;3.83;;
38911;SDS011;28444;48.056;14.408;2023-10-08T07:18:59;12.07;;;3.17;;
38911;SDS011;28444;48.056;14.408;2023-10-08T07:21:31;13.10;;;3.65;;
38911;SDS011;28444;48.056;14.408;2023-10-08T07:24:12;11.15;;;3.97;;
38911;SDS011;28444;48.056;14.408;2023-10-08T07:26:48;11.15;;;3.85;;
38911;SDS011;28444;48.056;14.408;2023-10-08T07:29:16;13.65;;;3.53;;
38911;SDS011;28444;48.056;14.408;2023-10-08T07:31:44;9.90;;;4.03;;
38911;SDS011;28444;48.056;14.408;2023-10-08T07:34:20;6.13;;;2.70;;
38911;SDS011;28444;48.056;14.408;2023-10-08T07:36:50;9.93;;;3.10;;
38911;SDS011;28444;48.056;14.408;2023-10-08T07:39:18;12.23;;;3.85;;
38911;SDS011;28444;48.056;14.408;2023-10-08T07:41:53;16.15;;;3.90;;
38911;SDS011;28444;48.056;14.408;2023-10-08T07:44:21;13.50;;;3.60;;
38911;SDS011;28444;48.056;14.408;2023-10-08T07:46:51;13.23;;;4.47;;
38911;SDS011;28444;48.056;14.408;2023-10-08T07:49:25;11.55;;;3.25;;
38911;SDS011;28444;48.056;14.408;2023-10-08T07:51:52;15.30;;;4.22;;
38911;SDS011;28444;48.056;14.408;2023-10-08T07:54:22;13.48;;;4.03;;
38911;SDS011;28444;48.056;14.408;2023-10-08T07:56:50;8.55;;;3.58;;
38911;SDS011;28444;48.056;14.408;2023-10-08T07:59:35;13.98;;;4.45;;
38911;SDS011;28444;48.056;14.408;2023-10-08T08:02:22;10.93;;;3.58;;
38911;SDS011;28444;48.056;14.408;2023-10-08T08:04:53;8.48;;;3.60;;
38911;SDS011;28444;48.056;14.408;2023-10-08T08:07:20;6.53;;;3.50;;
38911;SDS011;28444;48.056;14.408;2023-10-08T08:09:48;11.10;;;3.85;;
38911;SDS011;28444;48.056;14.408;2023-10-08T08:12:25;11.48;;;4.75;;
38911;SDS011;28444;48.056;14.408;2023-10-08T08:14:54;13.38;;;3.97;;
38911;SDS011;28444;48.056;14.408;2023-10-08T08:17:21;16.02;;;5.30;;
38911;SDS011;28444;48.056;14.408;2023-10-08T08:19:50;14.45;;;4.45;;
38911;SDS011;28444;48.056;14.408;2023-10-08T08:22:18;12.13;;;4.00;;
38911;SDS011;28444;48.056;14.408;2023-10-08T08:24:53;16.10;;;4.65;;
38911;SDS011;28444;48.056;14.408;2023-10-08T08:27:44;10.48;;;3.67;;
38911;SDS011;28444;48.056;14.408;2023-10-08T08:30:15;13.05;;;3.95;;
38911;SDS011;28444;48.056;14.408;2023-10-08T08:32:42;10.45;;;3.63;;
38911;SDS011;28444;48.056;14.408;2023-10-08T08:35:18;9.13;;;3.65;;
38911;SDS011;28444;48.056;14.408;2023-10-08T08:37:46;15.52;;;3.70;;
38911;SDS011;28444;48.056;14.408;2023-10-08T08:40:18;10.85;;;3.78;;
38911;SDS011;28444;48.056;14.408;2023-10-08T08:42:45;16.17;;;4.43;;
38911;SDS011;28444;48.056;14.408;2023-10-08T08:45:16;13.10;;;3.70;;
38911;SDS011;28444;48.056;14.408;2023-10-08T08:47:46;12.60;;;3.45;;
38911;SDS011;28444;48.056;14.408;2023-10-08T08:50:14;17.50;;;3.58;;
38911;SDS011;28444;48.056;14.408;2023-10-08T08:52:40;8.18;;;3.47;;
38911;SDS011;28444;48.056;14.408;2023-10-08T08:55:08;12.05;;;3.38;;
38911;SDS011;28444;48.056;14.408;2023-10-08T08:57:45;21.40;;;4.85;;
38911;SDS011;28444;48.056;14.408;2023-10-08T09:00:14;24.65;;;3.65;;
38911;SDS011;28444;48.056;14.408;2023-10-08T09:02:46;10.60;;;4.55;;
38911;SDS011;28444;48.056;14.408;2023-10-08T09:05:16;10.93;;;3.58;;
38911;SDS011;28444;48.056;14.408;2023-10-08T09:10:23;14.15;;;4.22;;
38911;SDS011;28444;48.056;14.408;2023-10-08T09:12:58;12.80;;;3.95;;
38911;SDS011;28444;48.056;14.408;2023-10-08T09:15:26;12.27;;;3.45;;
38911;SDS011;28444;48.056;14.408;2023-10-08T09:17:54;12.60;;;4.20;;
38911;SDS011;28444;48.056;14.408;2023-10-08T09:20:22;20.08;;;3.53;;
38911;SDS011;28444;48.056;14.408;2023-10-08T09:23:05;10.75;;;3.53;;
38911;SDS011;28444;48.056;14.408;2023-10-08T09:25:39;10.30;;;4.15;;
38911;SDS011;28444;48.056;14.408;2023-10-08T09:28:07;10.70;;;3.17;;
38911;SDS011;28444;48.056;14.408;2023-10-08T09:30:35;14.63;;;4.43;;
38911;SDS011;28444;48.056;14.408;2023-10-08T09:33:05;10.27;;;3.70;;
38911;SDS011;28444;48.056;14.408;2023-10-08T09:35:33;9.32;;;3.63;;
38911;SDS011;28444;48.056;14.408;2023-10-08T09:38:02;14.80;;;3.92;;
38911;SDS011;28444;48.056;14.408;2023-10-08T09:40:29;14.50;;;3.88;;
38911;SDS011;28444;48.056;14.408;2023-10-08T09:42:56;11.82;;;3.75;;
38911;SDS011;28444;48.056;14.408;2023-10-08T09:45:24;9.38;;;3.58;;
38911;SDS011;28444;48.056;14.408;2023-10-08T09:47:55;16.70;;;3.80;;
38911;SDS011;28444;48.056;14.408;2023-10-08T09:50:29;9.77;;;4.25;;
38911;SDS011;28444;48.056;14.408;2023-10-08T09:53:08;10.52;;;4.30;;
38911;SDS011;28444;48.056;14.408;2023-10-08T09:55:50;14.77;;;3.85;;
38911;SDS011;28444;48.056;14.408;2023-10-08T09:58:23;13.68;;;3.30;;
38911;SDS011;28444;48.056;14.408;2023-10-08T10:00:52;11.05;;;4.38;;
38911;SDS011;28444;48.056;14.408;2023-10-08T10:03:24;7.90;;;3.55;;
38911;SDS011;28444;48.056;14.408;2023-10-08T10:05:52;14.07;;;4.47;;
38911;SDS011;28444;48.056;14.408;2023-10-08T10:11:00;8.57;;;3.78;;
38911;SDS011;28444;48.056;14.408;2023-10-08T10:13:28;14.25;;;4.00;;
38911;SDS011;28444;48.056;14.408;2023-10-08T10:15:56;9.65;;;4.18;;
38911;SDS011;28444;48.056;14.408;2023-10-08T10:20:53;12.80;;;4.28;;
38911;SDS011;28444;48.056;14.408;2023-10-08T10:23:36;11.25;;;4.38;;
38911;SDS011;28444;48.056;14.408;2023-10-08T10:31:43;13.25;;;3.80;;
38911;SDS011;28444;48.056;14.408;2023-10-08T10:34:14;21.95;;;4.97;;
38911;SDS011;28444;48.056;14.408;2023-10-08T10:36:44;10.48;;;4.00;;
38911;SDS011;28444;48.056;14.408;2023-10-08T10:39:18;7.95;;;3.95;;
38911;SDS011;28444;48.056;14.408;2023-10-08T10:41:59;18.42;;;4.68;;
38911;SDS011;28444;48.056;14.408;2023-10-08T10:44:29;9.60;;;5.07;;
38911;SDS011;28444;48.056;14.408;2023-10-08T10:46:57;19.70;;;3.42;;
38911;SDS011;28444;48.056;14.408;2023-10-08T10:49:42;12.52;;;4.10;;
38911;SDS011;28444;48.056;14.408;2023-10-08T10:52:39;12.68;;;4.15;;
38911;SDS011;28444;48.056;14.408;2023-10-08T10:55:19;13.40;;;4.25;;
38911;SDS011;28444;48.056;14.408;2023-10-08T10:57:57;13.40;;;4.20;;
38911;SDS011;28444;48.056;14.408;2023-10-08T11:00:39;14.00;;;4.50;;
38911;SDS011;28444;48.056;14.408;2023-10-08T11:03:08;9.27;;;3.72;;
38911;SDS011;28444;48.056;14.408;2023-10-08T11:05:51;16.23;;;4.35;;
38911;SDS011;28444;48.056;14.408;2023-10-08T11:08:21;8.13;;;3.95;;
38911;SDS011;28444;48.056;14.408;2023-10-08T11:10:49;13.52;;;4.57;;
38911;SDS011;28444;48.056;14.408;2023-10-08T11:13:21;11.25;;;3.53;;
38911;SDS011;28444;48.056;14.408;2023-10-08T11:15:55;15.43;;;4.22;;
38911;SDS011;28444;48.056;14.408;2023-10-08T11:18:25;22.95;;;4.45;;
38911;SDS011;28444;48.056;14.408;2023-10-08T11:21:04;14.85;;;3.67;;
38911;SDS011;28444;48.056;14.408;2023-10-08T11:23:41;14.50;;;3.70;;
38911;SDS011;28444;48.056;14.408;2023-10-08T11:26:09;14.57;;;4.55;;
38911;SDS011;28444;48.056;14.408;2023-10-08T11:28:38;14.70;;;4.38;;
38911;SDS011;28444;48.056;14.408;2023-10-08T11:31:11;11.43;;;3.70;;
38911;SDS011;28444;48.056;14.408;2023-10-08T11:33:40;14.20;;;4.22;;
38911;SDS011;28444;48.056;14.408;2023-10-08T11:36:09;14.60;;;4.28;;
38911;SDS011;28444;48.056;14.408;2023-10-08T11:38:45;13.60;;;4.15;;
38911;SDS011;28444;48.056;14.408;2023-10-08T11:41:17;9.15;;;3.70;;
38911;SDS011;28444;48.056;14.408;2023-10-08T11:43:50;15.02;;;4.13;;
38911;SDS011;28444;48.056;14.408;2023-10-08T11:49:14;13.35;;;4.07;;
38911;SDS011;28444;48.056;14.408;2023-10-08T11:51:51;12.65;;;4.00;;
38911;SDS011;28444;48.056;14.408;2023-10-08T11:54:19;13.05;;;3.97;;
38911;SDS011;28444;48.056;14.408;2023-10-08T11:56:46;12.48;;;4.13;;
38911;SDS011;28444;48.056;14.408;2023-10-08T11:59:13;10.93;;;4.43;;
38911;SDS011;28444;48.056;14.408;2023-10-08T12:01:40;10.82;;;3.90;;
38911;SDS011;28444;48.056;14.408;2023-10-08T12:04:09;14.15;;;4.03;;
38911;SDS011;28444;48.056;14.408;2023-10-08T12:06:43;21.90;;;4.45;;
38911;SDS011;28444;48.056;14.408;2023-10-08T12:09:13;8.48;;;4.07;;
38911;SDS011;28444;48.056;14.408;2023-10-08T12:11:41;13.10;;;4.25;;
38911;SDS011;28444;48.056;14.408;2023-10-08T12:14:09;16.02;;;5.50;;
38911;SDS011;28444;48.056;14.408;2023-10-08T12:16:37;10.20;;;4.05;;
38911;SDS011;28444;48.056;14.408;2023-10-08T12:19:06;10.18;;;4.55;;
38911;SDS011;28444;48.056;14.408;2023-10-08T12:21:42;11.82;;;3.58;;
38911;SDS011;28444;48.056;14.408;2023-10-08T12:24:14;12.77;;;4.43;;
38911;SDS011;28444;48.056;14.408;2023-10-08T12:26:41;9.68;;;3.75;;
38911;SDS011;28444;48.056;14.408;2023-10-08T12:29:12;17.33;;;3.97;;
38911;SDS011;28444;48.056;14.408;2023-10-08T12:31:45;12.63;;;4.05;;
38911;SDS011;28444;48.056;14.408;2023-10-08T12:34:14;9.65;;;4.05;;
38911;SDS011;28444;48.056;14.408;2023-10-08T12:36:41;16.17;;;4.50;;
38911;SDS011;28444;48.056;14.408;2023-10-08T12:39:08;12.07;;;4.32;;
38911;SDS011;28444;48.056;14.408;2023-10-08T12:41:37;12.07;;;4.72;;
38911;SDS011;28444;48.056;14.408;2023-10-08T12:44:05;17.05;;;4.07;;
38911;SDS011;28444;48.056;14.408;2023-10-08T12:46:34;9.93;;;3.55;;
38911;SDS011;28444;48.056;14.408;2023-10-08T12:49:01;10.32;;;4.43;;
38911;SDS011;28444;48.056;14.408;2023-10-08T12:51:28;16.90;;;4.43;;
38911;SDS011;28444;48.056;14.408;2023-10-08T12:53:59;14.07;;;4.03;;
38911;SDS011;28444;48.056;14.408;2023-10-08T12:56:29;11.43;;;4.25;;
38911;SDS011;28444;48.056;14.408;2023-10-08T12:59:12;9.27;;;3.97;;
38911;SDS011;28444;48.056;14.408;2023-10-08T13:01:47;9.20;;;3.78;;
38911;SDS011;28444;48.056;14.408;2023-10-08T13:04:18;16.20;;;3.90;;
38911;SDS011;28444;48.056;14.408;2023-10-08T13:06:57;10.60;;;4.43;;
38911;SDS011;28444;48.056;14.408;2023-10-08T13:09:27;11.77;;;4.22;;
38911;SDS011;28444;48.056;14.408;2023-10-08T13:11:57;11.88;;;4.28;;
38911;SDS011;28444;48.056;14.408;2023-10-08T13:14:27;12.80;;;5.05;;
38911;SDS011;28444;48.056;14.408;2023-10-08T13:16:54;19.88;;;4.95;;
38911;SDS011;28444;48.056;14.408;2023-10-08T13:19:21;18.17;;;5.30;;
38911;SDS011;28444;48.056;14.408;2023-10-08T13:21:50;14.55;;;4.70;;
38911;SDS011;28444;48.056;14.408;2023-10-08T13:24:19;8.60;;;3.88;;
38911;SDS011;28444;48.056;14.408;2023-10-08T13:26:50;7.82;;;3.70;;
38911;SDS011;28444;48.056;14.408;2023-10-08T13:29:17;9.90;;;4.65;;
38911;SDS011;28444;48.056;14.408;2023-10-08T13:31:45;13.65;;;4.25;;
38911;SDS011;28444;48.056;14.408;2023-10-08T13:34:13;15.80;;;4.50;;
38911;SDS011;28444;48.056;14.408;2023-10-08T13:36:42;13.88;;;4.53;;
38911;SDS011;28444;48.056;14.408;2023-10-08T13:39:15;13.23;;;5.65;;
38911;SDS011;28444;48.056;14.408;2023-10-08T13:41:47;17.50;;;4.63;;
38911;SDS011;28444;48.056;14.408;2023-10-08T13:44:14;13.25;;;4.15;;
38911;SDS011;28444;48.056;14.408;2023-10-08T13:46:42;15.35;;;4.20;;
38911;SDS011;28444;48.056;14.408;2023-10-08T13:49:17;13.10;;;4.00;;
38911;SDS011;28444;48.056;14.408;2023-10-08T13:51:45;12.25;;;4.70;;
38911;SDS011;28444;48.056;14.408;2023-10-08T13:54:13;8.75;;;4.10;;
38911;SDS011;28444;48.056;14.408;2023-10-08T13:56:41;17.38;;;5.00;;
38911;SDS011;28444;48.056;14.408;2023-10-08T13:59:15;12.68;;;4.32;;
38911;SDS011;28444;48.056;14.408;2023-10-08T14:01:43;16.00;;;4.93;;
38911;SDS011;28444;48.056;14.408;2023-10-08T14:04:18;14.63;;;4.18;;
38911;SDS011;28444;48.056;14.408;2023-10-08T14:06:53;15.65;;;5.82;;
38911;SDS011;28444;48.056;14.408;2023-10-08T14:09:21;14.75;;;4.13;;
38911;SDS011;28444;48.056;14.408;2023-10-08T14:11:58;13.40;;;4.05;;
38911;SDS011;28444;48.056;14.408;2023-10-08T14:14:29;12.27;;;5.10;;
38911;SDS011;28444;48.056;14.408;2023-10-08T14:17:01;18.27;;;4.72;;
38911;SDS011;28444;48.056;14.408;2023-10-08T14:19:37;13.38;;;5.30;;
38911;SDS011;28444;48.056;14.408;2023-10-08T14:22:18;17.67;;;4.70;;
38911;SDS011;28444;48.056;14.408;2023-10-08T14:24:48;11.85;;;4.53;;
38911;SDS011;28444;48.056;14.408;2023-10-08T14:27:25;11.57;;;4.43;;
38911;SDS011;28444;48.056;14.408;2023-10-08T14:29:58;12.65;;;5.10;;
38911;SDS011;28444;48.056;14.408;2023-10-08T14:32:32;7.38;;;2.97;;
38911;SDS011;28444;48.056;14.408;2023-10-08T14:35:00;11.75;;;3.55;;
38911;SDS011;28444;48.056;14.408;2023-10-08T14:37:45;6.47;;;2.10;;
38911;SDS011;28444;48.056;14.408;2023-10-08T14:40:30;4.72;;;1.83;;
38911;SDS011;28444;48.056;14.408;2023-10-08T14:43:15;3.33;;;1.98;;
38911;SDS011;28444;48.056;14.408;2023-10-08T14:45:46;2.97;;;1.75;;
38911;SDS011;28444;48.056;14.408;2023-10-08T14:48:13;1.80;;;1.40;;
38911;SDS011;28444;48.056;14.408;2023-10-08T14:50:40;7.45;;;1.30;;
38911;SDS011;28444;48.056;14.408;2023-10-08T14:53:09;2.80;;;1.27;;
38911;SDS011;28444;48.056;14.408;2023-10-08T14:55:36;3.97;;;1.92;;
38911;SDS011;28444;48.056;14.408;2023-10-08T14:58:04;2.15;;;1.60;;
38911;SDS011;28444;48.056;14.408;2023-10-08T15:00:36;6.00;;;1.70;;
38911;SDS011;28444;48.056;14.408;2023-10-08T15:03:04;2.72;;;1.30;;
38911;SDS011;28444;48.056;14.408;2023-10-08T15:05:31;7.00;;;1.63;;
38911;SDS011;28444;48.056;14.408;2023-10-08T15:07:58;7.63;;;1.50;;
38911;SDS011;28444;48.056;14.408;2023-10-08T15:10:25;2.28;;;1.33;;
38911;SDS011;28444;48.056;14.408;2023-10-08T15:12:52;2.90;;;1.75;;
38911;SDS011;28444;48.056;14.408;2023-10-08T15:15:20;3.97;;;1.30;;
38911;SDS011;28444;48.056;14.408;2023-10-08T15:17:51;4.32;;;1.38;;
38911;SDS011;28444;48.056;14.408;2023-10-08T15:20:18;2.45;;;1.58;;